createdAt,value
2017-09-21T00:02:10.693Z,7.80
2017-09-21T00:04:38.478Z,7.40
2017-09-21T00:07:06.072Z,7.63
2017-09-21T00:09:33.714Z,7.30
2017-09-21T00:12:01.323Z,7.50
2017-09-21T00:14:28.959Z,6.60
2017-09-21T00:16:56.537Z,7.00
2017-09-21T00:19:24.143Z,7.10
2017-09-21T00:21:51.766Z,6.33
2017-09-21T00:24:19.386Z,6.97
2017-09-21T00:26:47.011Z,7.27
2017-09-21T00:29:14.639Z,6.67
2017-09-21T00:31:42.282Z,7.00
2017-09-21T00:34:09.869Z,6.40
2017-09-21T00:36:37.531Z,7.00
2017-09-21T00:39:05.251Z,5.80
2017-09-21T00:41:32.826Z,6.60
2017-09-21T00:44:00.458Z,6.43
2017-09-21T00:46:28.085Z,5.60
2017-09-21T00:48:55.741Z,5.40
2017-09-21T00:51:23.373Z,6.20
2017-09-21T00:53:51.015Z,6.33
2017-09-21T00:56:18.598Z,6.40
2017-09-21T00:58:46.237Z,5.77
2017-09-21T01:01:13.849Z,6.23
2017-09-21T01:03:41.520Z,5.60
2017-09-21T01:06:09.140Z,6.00
2017-09-21T01:08:36.791Z,5.47
2017-09-21T01:11:04.383Z,6.20
2017-09-21T01:13:32.021Z,5.87
2017-09-21T01:15:59.800Z,5.83
2017-09-21T01:18:27.456Z,6.80
2017-09-21T01:20:55.135Z,5.87
2017-09-21T01:23:22.846Z,5.97
2017-09-21T01:25:50.485Z,5.43
2017-09-21T01:28:18.110Z,6.97
2017-09-21T01:30:45.719Z,5.20
2017-09-21T01:33:13.346Z,5.77
2017-09-21T01:35:40.939Z,6.23
2017-09-21T01:38:08.554Z,6.60
2017-09-21T01:40:36.147Z,6.13
2017-09-21T01:43:03.740Z,5.80
2017-09-21T01:45:31.388Z,6.07
2017-09-21T01:47:58.982Z,5.40
2017-09-21T01:50:26.611Z,5.43
2017-09-21T01:52:54.199Z,5.03
2017-09-21T01:55:21.819Z,6.17
2017-09-21T01:57:49.416Z,4.93
2017-09-21T02:00:17.046Z,5.43
2017-09-21T02:02:44.642Z,5.57
2017-09-21T02:05:12.267Z,4.70
2017-09-21T02:07:39.934Z,5.10
2017-09-21T02:10:07.711Z,6.60
2017-09-21T02:12:35.670Z,6.00
2017-09-21T02:15:03.276Z,6.37
2017-09-21T02:17:30.914Z,6.33
2017-09-21T02:19:58.529Z,5.97
2017-09-21T02:22:26.198Z,6.50
2017-09-21T02:24:53.786Z,6.20
2017-09-21T02:27:21.460Z,5.23
2017-09-21T02:29:49.040Z,5.23
2017-09-21T02:32:16.670Z,5.50
2017-09-21T02:34:44.279Z,5.80
2017-09-21T02:37:11.910Z,5.10
2017-09-21T02:39:39.738Z,5.13
2017-09-21T02:42:07.420Z,5.80
2017-09-21T02:44:35.030Z,4.73
2017-09-21T02:47:02.757Z,4.77
2017-09-21T02:49:30.358Z,6.00
2017-09-21T02:51:57.947Z,5.63
2017-09-21T02:54:25.683Z,4.93
2017-09-21T02:56:53.281Z,5.73
2017-09-21T02:59:20.928Z,5.70
2017-09-21T03:01:48.524Z,4.80
2017-09-21T03:04:16.250Z,5.67
2017-09-21T03:06:43.848Z,4.60
2017-09-21T03:09:11.475Z,5.37
2017-09-21T03:11:39.079Z,4.67
2017-09-21T03:14:06.711Z,5.90
2017-09-21T03:16:34.327Z,5.43
2017-09-21T03:19:01.980Z,5.93
2017-09-21T03:21:29.567Z,5.20
2017-09-21T03:23:57.190Z,5.20
2017-09-21T03:26:24.815Z,5.23
2017-09-21T03:28:52.399Z,5.60
2017-09-21T03:31:20.233Z,4.93
2017-09-21T03:33:47.819Z,5.53
2017-09-21T03:36:15.430Z,5.27
2017-09-21T03:38:43.069Z,6.23
2017-09-21T03:41:11.391Z,5.70
2017-09-21T03:43:39.602Z,7.33
2017-09-21T03:46:07.437Z,6.70
2017-09-21T03:48:35.656Z,6.40
2017-09-21T03:51:03.682Z,5.70
2017-09-21T03:53:31.362Z,5.90
2017-09-21T03:55:59.411Z,7.30
2017-09-21T03:58:27.052Z,6.63
2017-09-21T04:00:55.526Z,6.83
2017-09-21T04:03:23.288Z,6.80
2017-09-21T04:05:51.435Z,6.37
2017-09-21T04:08:19.072Z,6.40
2017-09-21T04:10:47.011Z,7.40
2017-09-21T04:13:15.495Z,6.43
2017-09-21T04:15:43.135Z,5.97
2017-09-21T04:18:11.360Z,6.87
2017-09-21T04:20:39.543Z,6.43
2017-09-21T04:23:07.906Z,7.60
2017-09-21T04:25:35.532Z,6.70
2017-09-21T04:28:03.256Z,9.10
2017-09-21T04:30:30.864Z,20.60
2017-09-21T04:32:59.367Z,8.70
2017-09-21T04:35:27.440Z,6.40
2017-09-21T04:37:55.119Z,11.00
2017-09-21T04:40:22.725Z,8.77
2017-09-21T04:42:50.518Z,6.77
2017-09-21T04:45:18.211Z,6.03
2017-09-21T04:47:45.841Z,6.30
2017-09-21T04:50:13.498Z,6.27
2017-09-21T04:52:41.183Z,6.03
2017-09-21T04:55:08.824Z,35.23
2017-09-21T04:57:36.771Z,11.83
2017-09-21T05:00:04.898Z,7.07
2017-09-21T05:02:32.631Z,7.17
2017-09-21T05:05:01.281Z,6.77
2017-09-21T05:07:29.079Z,7.07
2017-09-21T05:09:57.648Z,7.57
2017-09-21T05:12:25.258Z,8.50
2017-09-21T05:14:52.896Z,6.60
2017-09-21T05:17:20.520Z,6.00
2017-09-21T05:19:48.241Z,6.10
2017-09-21T05:22:17.034Z,5.83
2017-09-21T05:24:45.957Z,5.50
2017-09-21T05:27:13.580Z,5.90
2017-09-21T05:29:41.815Z,7.93
2017-09-21T05:32:09.467Z,5.57
2017-09-21T05:34:37.070Z,5.70
2017-09-21T05:37:04.689Z,5.73
2017-09-21T05:39:32.343Z,5.60
2017-09-21T05:41:59.966Z,7.30
2017-09-21T05:44:27.678Z,5.67
2017-09-21T05:46:55.303Z,6.00
2017-09-21T05:49:22.922Z,5.53
2017-09-21T05:51:50.539Z,6.17
2017-09-21T05:54:18.155Z,5.63
2017-09-21T05:56:45.811Z,6.07
2017-09-21T05:59:13.406Z,5.50
2017-09-21T06:01:41.027Z,5.13
2017-09-21T06:04:08.618Z,5.60
2017-09-21T06:06:36.300Z,6.40
2017-09-21T06:09:03.926Z,6.07
2017-09-21T06:11:31.519Z,5.70
2017-09-21T06:13:59.153Z,5.37
2017-09-21T06:16:26.755Z,6.20
2017-09-21T06:18:54.556Z,6.00
2017-09-21T06:21:22.218Z,5.30
2017-09-21T06:23:49.828Z,6.03
2017-09-21T06:26:17.446Z,6.70
2017-09-21T06:28:45.059Z,7.00
2017-09-21T06:31:12.650Z,6.33
2017-09-21T06:33:40.302Z,7.03
2017-09-21T06:36:07.904Z,7.20
2017-09-21T06:38:35.534Z,6.70
2017-09-21T06:41:03.110Z,8.27
2017-09-21T06:43:30.735Z,7.00
2017-09-21T06:45:58.344Z,6.77
2017-09-21T06:48:26.001Z,6.93
2017-09-21T06:50:53.638Z,7.63
2017-09-21T06:53:21.246Z,7.23
2017-09-21T06:55:48.874Z,7.37
2017-09-21T06:58:16.463Z,7.20
2017-09-21T07:00:44.084Z,7.30
2017-09-21T07:03:11.675Z,7.47
2017-09-21T07:05:39.290Z,7.57
2017-09-21T07:08:06.883Z,7.53
2017-09-21T07:10:34.494Z,7.73
2017-09-21T07:13:02.078Z,6.87
2017-09-21T07:15:29.715Z,6.97
2017-09-21T07:17:57.316Z,7.90
2017-09-21T07:20:24.929Z,7.83
2017-09-21T07:22:52.539Z,6.43
2017-09-21T07:25:20.165Z,7.20
2017-09-21T07:27:47.758Z,7.97
2017-09-21T07:30:15.386Z,7.63
2017-09-21T07:32:42.978Z,8.30
2017-09-21T07:35:10.644Z,7.30
2017-09-21T07:37:38.258Z,7.97
2017-09-21T07:40:05.880Z,7.10
2017-09-21T07:42:33.475Z,7.03
2017-09-21T07:45:01.120Z,6.90
2017-09-21T07:47:28.757Z,7.53
2017-09-21T07:49:56.343Z,7.30
2017-09-21T07:52:23.966Z,7.57
2017-09-21T07:54:51.564Z,7.70
2017-09-21T07:57:19.300Z,8.73
2017-09-21T07:59:46.897Z,6.67
2017-09-21T08:02:14.531Z,7.90
2017-09-21T08:04:42.138Z,7.90
2017-09-21T08:07:09.767Z,7.07
2017-09-21T08:09:37.358Z,6.80
2017-09-21T08:12:04.984Z,7.30
2017-09-21T08:14:32.621Z,5.93
2017-09-21T08:17:00.258Z,7.20
2017-09-21T08:19:29.553Z,7.00
2017-09-21T08:21:57.316Z,6.50
2017-09-21T08:24:24.904Z,7.00
2017-09-21T08:26:52.526Z,6.67
2017-09-21T08:29:20.132Z,7.17
2017-09-21T08:31:47.758Z,6.50
2017-09-21T08:34:15.354Z,5.53
2017-09-21T08:36:43.122Z,6.30
2017-09-21T08:39:10.706Z,6.67
2017-09-21T08:41:38.294Z,5.77
2017-09-21T08:44:05.950Z,6.20
2017-09-21T08:46:33.550Z,7.87
2017-09-21T08:49:01.174Z,6.13
2017-09-21T08:51:28.767Z,6.10
2017-09-21T08:53:56.383Z,5.70
2017-09-21T08:56:24.050Z,5.77
2017-09-21T08:58:51.717Z,5.90
2017-09-21T09:01:19.386Z,6.07
2017-09-21T09:03:46.974Z,5.60
2017-09-21T09:06:14.610Z,6.17
2017-09-21T09:08:42.200Z,6.30
2017-09-21T09:11:09.814Z,5.60
2017-09-21T09:13:37.426Z,5.30
2017-09-21T09:16:05.054Z,5.67
2017-09-21T09:18:32.658Z,5.27
2017-09-21T09:21:00.288Z,5.40
2017-09-21T09:23:27.918Z,5.40
2017-09-21T09:25:55.566Z,5.17
2017-09-21T09:28:23.163Z,8.07
2017-09-21T09:30:50.797Z,5.60
2017-09-21T09:33:18.440Z,4.90
2017-09-21T09:35:46.087Z,5.47
2017-09-21T09:38:13.739Z,4.50
2017-09-21T09:40:41.400Z,4.93
2017-09-21T09:43:09.011Z,5.23
2017-09-21T09:45:36.664Z,4.53
2017-09-21T09:48:04.294Z,4.60
2017-09-21T09:50:31.883Z,4.13
2017-09-21T09:52:59.511Z,4.23
2017-09-21T09:55:27.118Z,4.27
2017-09-21T09:57:54.767Z,4.60
2017-09-21T10:00:22.350Z,4.57
2017-09-21T10:02:49.995Z,4.77
2017-09-21T10:05:17.613Z,4.83
2017-09-21T10:07:45.248Z,4.73
2017-09-21T10:10:12.847Z,5.67
2017-09-21T10:12:40.498Z,4.67
2017-09-21T10:15:08.082Z,4.17
2017-09-21T10:17:35.702Z,3.80
2017-09-21T10:20:03.332Z,5.10
2017-09-21T10:22:30.959Z,3.73
2017-09-21T10:24:58.536Z,3.90
2017-09-21T10:27:26.162Z,3.70
2017-09-21T10:29:53.751Z,3.67
2017-09-21T10:32:21.387Z,3.43
2017-09-21T10:34:49.028Z,3.27
2017-09-21T10:37:16.647Z,3.70
2017-09-21T10:39:44.265Z,3.27
2017-09-21T10:42:11.906Z,2.47
2017-09-21T10:44:39.508Z,3.20
2017-09-21T10:47:07.121Z,2.27
2017-09-21T10:49:34.734Z,2.60
2017-09-21T10:52:02.383Z,2.50
2017-09-21T10:54:30.043Z,2.60
2017-09-21T10:56:57.665Z,2.97
2017-09-21T10:59:25.265Z,2.50
2017-09-21T11:01:52.904Z,3.43
2017-09-21T11:04:20.494Z,3.63
2017-09-21T11:06:48.170Z,2.50
2017-09-21T11:09:15.776Z,2.97
2017-09-21T11:11:43.406Z,2.83
2017-09-21T11:14:11.092Z,2.63
2017-09-21T11:16:38.687Z,2.53
2017-09-21T11:19:06.310Z,2.10
2017-09-21T11:21:33.906Z,2.40
2017-09-21T11:24:01.539Z,2.13
2017-09-21T11:26:29.140Z,1.73
2017-09-21T11:28:56.759Z,1.57
2017-09-21T11:31:24.354Z,2.33
2017-09-21T11:33:51.979Z,2.10
2017-09-21T11:36:19.639Z,2.10
2017-09-21T11:38:47.279Z,1.77
2017-09-21T11:41:14.866Z,2.30
2017-09-21T11:43:42.462Z,2.30
2017-09-21T11:46:10.088Z,2.20
2017-09-21T11:48:37.718Z,2.43
2017-09-21T11:51:05.311Z,2.00
2017-09-21T11:53:32.955Z,2.10
2017-09-21T11:56:00.578Z,1.73
2017-09-21T11:58:28.190Z,2.10
2017-09-21T12:00:55.807Z,2.33
2017-09-21T12:03:23.387Z,2.40
2017-09-21T12:05:51.019Z,2.10
2017-09-21T12:08:18.613Z,1.93
2017-09-21T12:10:46.226Z,1.80
2017-09-21T12:13:13.838Z,1.97
2017-09-21T12:15:41.487Z,2.70
2017-09-21T12:18:09.071Z,1.67
2017-09-21T12:20:36.700Z,1.90
2017-09-21T12:23:04.285Z,2.13
2017-09-21T12:25:31.906Z,1.70
2017-09-21T12:27:59.487Z,2.20
2017-09-21T12:30:27.122Z,2.70
2017-09-21T12:32:54.751Z,1.60
2017-09-21T12:35:22.347Z,2.40
2017-09-21T12:37:49.975Z,2.83
2017-09-21T12:40:17.644Z,1.60
2017-09-21T12:42:45.347Z,2.20
2017-09-21T12:45:12.963Z,2.20
2017-09-21T12:47:40.594Z,2.47
2017-09-21T12:50:08.181Z,2.77
2017-09-21T12:52:36.031Z,2.00
2017-09-21T12:55:03.650Z,2.30
2017-09-21T12:57:31.345Z,2.30
2017-09-21T12:59:58.969Z,2.47
2017-09-21T13:02:26.595Z,2.00
2017-09-21T13:04:54.206Z,2.17
2017-09-21T13:07:21.959Z,2.63
2017-09-21T13:09:49.568Z,3.10
2017-09-21T13:12:17.222Z,3.10
2017-09-21T13:14:44.813Z,2.57
2017-09-21T13:17:12.437Z,2.27
2017-09-21T13:19:40.028Z,1.80
2017-09-21T13:22:07.679Z,1.90
2017-09-21T13:24:35.281Z,2.00
2017-09-21T13:27:02.908Z,2.43
2017-09-21T13:29:30.548Z,2.13
2017-09-21T13:31:58.179Z,2.10
2017-09-21T13:34:25.786Z,2.20
2017-09-21T13:36:53.445Z,2.03
2017-09-21T13:39:21.051Z,3.20
2017-09-21T13:41:48.731Z,2.57
2017-09-21T13:44:16.362Z,2.30
2017-09-21T13:46:43.960Z,2.20
2017-09-21T13:49:11.591Z,1.83
2017-09-21T13:51:39.183Z,1.60
2017-09-21T13:54:06.820Z,1.83
2017-09-21T13:56:34.431Z,5.00
2017-09-21T13:59:02.051Z,3.40
2017-09-21T14:01:29.656Z,1.93
2017-09-21T14:03:57.286Z,1.60
2017-09-21T14:06:24.890Z,4.53
2017-09-21T14:08:52.546Z,2.53
2017-09-21T14:11:20.141Z,1.70
2017-09-21T14:13:47.746Z,2.60
2017-09-21T14:16:15.362Z,1.80
2017-09-21T14:18:42.971Z,2.07
2017-09-21T14:21:10.558Z,2.40
2017-09-21T14:23:38.193Z,1.80
2017-09-21T14:26:05.796Z,2.23
2017-09-21T14:28:33.410Z,1.80
2017-09-21T14:31:01.058Z,1.93
2017-09-21T14:33:28.674Z,1.73
2017-09-21T14:35:56.295Z,2.20
2017-09-21T14:38:23.922Z,2.37
2017-09-21T14:40:51.519Z,2.10
2017-09-21T14:43:19.219Z,1.73
2017-09-21T14:45:46.801Z,1.67
2017-09-21T14:48:14.441Z,1.73
2017-09-21T14:50:42.074Z,1.97
2017-09-21T14:53:09.705Z,1.77
2017-09-21T14:55:37.290Z,2.53
2017-09-21T14:58:04.915Z,1.70
2017-09-21T15:00:32.514Z,1.73
2017-09-21T15:03:00.133Z,1.87
2017-09-21T15:05:27.768Z,1.83
2017-09-21T15:07:55.421Z,1.60
2017-09-21T15:10:23.014Z,2.00
2017-09-21T15:12:50.607Z,1.50
2017-09-21T15:15:18.248Z,1.90
2017-09-21T15:17:45.857Z,1.40
2017-09-21T15:20:13.503Z,1.70
2017-09-21T15:22:41.162Z,1.93
2017-09-21T15:25:08.794Z,1.43
2017-09-21T15:27:36.395Z,2.07
2017-09-21T15:30:04.003Z,1.40
2017-09-21T15:32:31.698Z,2.13
2017-09-21T15:34:59.314Z,1.80
2017-09-21T15:37:26.988Z,1.70
2017-09-21T15:39:54.583Z,1.60
2017-09-21T15:42:22.231Z,1.50
2017-09-21T15:44:49.822Z,1.60
2017-09-21T15:47:17.437Z,1.70
2017-09-21T15:49:45.078Z,2.03
2017-09-21T15:52:12.673Z,1.33
2017-09-21T15:54:40.302Z,1.33
2017-09-21T15:57:07.904Z,1.43
2017-09-21T15:59:35.531Z,2.17
2017-09-21T16:02:03.144Z,2.13
2017-09-21T16:04:30.787Z,1.87
2017-09-21T16:06:58.386Z,2.20
2017-09-21T16:09:26.033Z,1.67
2017-09-21T16:11:53.635Z,1.87
2017-09-21T16:14:21.262Z,2.80
2017-09-21T16:16:48.922Z,2.73
2017-09-21T16:19:16.556Z,2.00
2017-09-21T16:21:44.339Z,1.70
2017-09-21T16:24:11.995Z,1.80
2017-09-21T16:26:39.673Z,1.47
2017-09-21T16:29:09.027Z,2.07
2017-09-21T16:31:36.767Z,2.30
2017-09-21T16:34:05.081Z,1.60
2017-09-21T16:36:32.780Z,1.77
2017-09-21T16:39:01.175Z,1.83
2017-09-21T16:41:30.553Z,1.70
2017-09-21T16:43:59.080Z,2.33
2017-09-21T16:46:27.268Z,3.00
2017-09-21T16:48:55.620Z,2.47
2017-09-21T16:51:23.262Z,2.60
2017-09-21T16:53:50.901Z,1.80
2017-09-21T16:56:19.259Z,2.07
2017-09-21T16:58:47.321Z,1.80
2017-09-21T17:01:15.773Z,1.63
2017-09-21T17:03:43.396Z,2.10
2017-09-21T17:06:11.626Z,1.97
2017-09-21T17:08:39.272Z,2.13
2017-09-21T17:11:06.936Z,2.10
2017-09-21T17:13:34.592Z,2.63
2017-09-21T17:16:02.258Z,2.60
2017-09-21T17:18:29.897Z,2.03
2017-09-21T17:20:57.563Z,2.60
2017-09-21T17:23:25.174Z,2.20
2017-09-21T17:25:52.863Z,2.47
2017-09-21T17:28:20.482Z,2.47
2017-09-21T17:30:48.090Z,2.50
2017-09-21T17:33:15.751Z,2.20
2017-09-21T17:35:43.349Z,2.00
2017-09-21T17:38:10.982Z,2.67
2017-09-21T17:40:38.760Z,5.00
2017-09-21T17:43:06.396Z,4.40
2017-09-21T17:45:33.982Z,3.00
2017-09-21T17:48:01.673Z,3.30
2017-09-21T17:50:29.266Z,3.07
2017-09-21T17:52:56.911Z,3.40
2017-09-21T17:55:24.526Z,3.00
2017-09-21T17:57:52.178Z,3.10
2017-09-21T18:00:19.890Z,5.50
2017-09-21T18:02:47.523Z,10.80
2017-09-21T18:05:15.140Z,6.10
2017-09-21T18:07:42.763Z,3.60
2017-09-21T18:10:10.364Z,3.43
2017-09-21T18:12:38.025Z,4.47
2017-09-21T18:15:05.648Z,3.70
2017-09-21T18:17:33.281Z,2.80
2017-09-21T18:20:00.921Z,3.03
2017-09-21T18:22:28.554Z,2.87
2017-09-21T18:24:56.171Z,2.97
2017-09-21T18:27:23.834Z,3.17
2017-09-21T18:29:51.438Z,3.30
2017-09-21T18:32:19.106Z,3.10
2017-09-21T18:34:46.725Z,2.90
2017-09-21T18:37:14.340Z,2.30
2017-09-21T18:39:41.952Z,2.67
2017-09-21T18:42:09.622Z,2.90
2017-09-21T18:44:37.385Z,2.83
2017-09-21T18:47:05.036Z,2.83
2017-09-21T18:49:32.936Z,2.90
2017-09-21T18:52:01.568Z,4.77
2017-09-21T18:54:30.498Z,3.80
2017-09-21T18:56:58.826Z,3.40
2017-09-21T18:59:26.621Z,3.03
2017-09-21T19:01:54.316Z,3.00
2017-09-21T19:04:21.966Z,3.00
2017-09-21T19:06:49.786Z,3.40
2017-09-21T19:09:17.414Z,3.50
2017-09-21T19:11:45.691Z,3.70
2017-09-21T19:14:13.331Z,5.13
2017-09-21T19:16:41.264Z,4.80
2017-09-21T19:19:08.895Z,3.60
2017-09-21T19:21:37.723Z,4.40
2017-09-21T19:24:05.397Z,3.17
2017-09-21T19:26:33.002Z,3.40
2017-09-21T19:29:01.400Z,3.70
2017-09-21T19:31:29.496Z,3.50
2017-09-21T19:33:57.206Z,3.90
2017-09-21T19:36:25.746Z,3.77
2017-09-21T19:38:53.436Z,3.90
2017-09-21T19:41:21.781Z,4.03
2017-09-21T19:43:49.479Z,4.60
2017-09-21T19:46:17.936Z,8.97
2017-09-21T19:48:45.586Z,4.80
2017-09-21T19:51:13.264Z,3.93
2017-09-21T19:53:40.917Z,4.17
2017-09-21T19:56:08.708Z,4.47
2017-09-21T19:58:37.130Z,3.90
2017-09-21T20:01:06.144Z,3.90
2017-09-21T20:03:34.747Z,3.77
2017-09-21T20:06:02.828Z,4.10
2017-09-21T20:08:30.527Z,4.00
2017-09-21T20:10:58.309Z,4.10
2017-09-21T20:13:26.708Z,3.97
2017-09-21T20:15:54.310Z,3.40
2017-09-21T20:18:22.040Z,4.77
2017-09-21T20:20:49.651Z,6.10
2017-09-21T20:23:17.288Z,4.70
2017-09-21T20:25:44.934Z,4.90
2017-09-21T20:28:12.607Z,5.03
2017-09-21T20:30:40.211Z,5.17
2017-09-21T20:33:07.902Z,5.70
2017-09-21T20:35:35.519Z,4.50
2017-09-21T20:38:03.109Z,4.40
2017-09-21T20:40:30.759Z,5.27
2017-09-21T20:42:58.395Z,5.40
2017-09-21T20:45:26.068Z,5.73
2017-09-21T20:47:53.697Z,4.90
2017-09-21T20:50:21.469Z,5.10
2017-09-21T20:52:49.087Z,4.83
2017-09-21T20:55:16.730Z,4.90
2017-09-21T20:57:44.331Z,4.37
2017-09-21T21:00:11.978Z,4.50
2017-09-21T21:02:39.632Z,4.60
2017-09-21T21:05:07.258Z,4.33
2017-09-21T21:07:34.866Z,4.60
2017-09-21T21:10:02.493Z,5.27
2017-09-21T21:12:30.110Z,5.23
2017-09-21T21:14:57.758Z,5.47
2017-09-21T21:17:25.447Z,6.67
2017-09-21T21:19:53.082Z,5.50
2017-09-21T21:22:20.684Z,6.67
2017-09-21T21:24:48.458Z,5.17
2017-09-21T21:27:16.155Z,6.07
2017-09-21T21:29:43.846Z,6.17
2017-09-21T21:32:11.453Z,7.23
2017-09-21T21:34:39.211Z,7.27
2017-09-21T21:37:06.827Z,6.67
2017-09-21T21:39:34.521Z,6.57
2017-09-21T21:42:02.123Z,7.27
2017-09-21T21:44:29.815Z,7.13
2017-09-21T21:46:57.431Z,7.10
2017-09-21T21:49:25.094Z,5.60
2017-09-21T21:51:52.728Z,6.03
2017-09-21T21:54:20.358Z,5.40
2017-09-21T21:56:47.990Z,6.20
2017-09-21T21:59:15.639Z,6.00
2017-09-21T22:01:43.258Z,6.10
2017-09-21T22:04:10.898Z,6.33
2017-09-21T22:06:38.521Z,5.97
2017-09-21T22:09:06.132Z,5.60
2017-09-21T22:11:33.771Z,6.60
2017-09-21T22:14:01.432Z,6.53
2017-09-21T22:16:29.037Z,6.10
2017-09-21T22:18:56.757Z,6.60
2017-09-21T22:21:24.391Z,7.07
2017-09-21T22:23:52.013Z,6.87
2017-09-21T22:26:19.688Z,7.37
2017-09-21T22:28:47.287Z,7.07
2017-09-21T22:31:14.909Z,7.40
2017-09-21T22:33:42.506Z,7.17
2017-09-21T22:36:10.142Z,7.63
2017-09-21T22:38:37.786Z,7.30
2017-09-21T22:41:05.423Z,8.03
2017-09-21T22:43:33.010Z,6.60
2017-09-21T22:46:00.634Z,6.40
2017-09-21T22:48:28.235Z,7.93
2017-09-21T22:50:55.900Z,6.07
2017-09-21T22:53:23.506Z,7.17
2017-09-21T22:55:51.098Z,6.43
2017-09-21T22:58:18.730Z,7.97
2017-09-21T23:00:46.378Z,7.10
2017-09-21T23:03:13.963Z,6.30
2017-09-21T23:05:41.591Z,5.90
2017-09-21T23:08:09.234Z,6.30
2017-09-21T23:10:36.824Z,7.07
2017-09-21T23:13:04.442Z,6.03
2017-09-21T23:15:32.030Z,5.87
2017-09-21T23:17:59.660Z,5.13
2017-09-21T23:20:27.247Z,6.00
2017-09-21T23:22:54.907Z,5.10
2017-09-21T23:25:22.499Z,6.10
2017-09-21T23:27:50.214Z,6.10
2017-09-21T23:30:17.854Z,6.30
2017-09-21T23:32:45.454Z,5.63
2017-09-21T23:35:13.082Z,5.53
2017-09-21T23:37:40.680Z,5.83
2017-09-21T23:40:08.309Z,6.30
2017-09-21T23:42:35.900Z,6.23
2017-09-21T23:45:03.518Z,5.97
2017-09-21T23:47:31.122Z,5.63
2017-09-21T23:49:58.737Z,6.40
2017-09-21T23:52:26.342Z,6.53
2017-09-21T23:54:53.969Z,5.50
2017-09-21T23:57:21.626Z,6.07
2017-09-21T23:59:49.245Z,5.40
